Nearby METAR Reports

(scroll for additional cities)

 

KPSP - Palm Springs, California, USA
Distance from station: WNW 7mi, 11km
Updated: Fri, 02-Dec-2022 4:53pm PST
Clear
Clear
 Wind from calm
Wind: Calm
Temperature: 63°F , 17°C
Dew Point: 43°F , 6°C
Humidity: 49%
Barometer: 30.10 inHg , 1019.3 hPa
Clouds: Clear
Visibility: 10 miles , 16 km
2022/12/03 00:53 KPSP 030053Z 00000KT 10SM CLR 17/06 A3010 RMK AO2 SLP194 T01720056
KTRM - Thermal/Palm Spg, California, USA
Distance from station: SE 16mi, 26km
Updated: Fri, 02-Dec-2022 4:52pm PST
Clear
Clear
 Wind from calm
Wind: Calm
Temperature: 57°F , 14°C
Dew Point: 46°F , 8°C
Humidity: 67%
Barometer: 30.08 inHg , 1018.6 hPa
Clouds: Clear
Visibility: 10 miles , 16 km
2022/12/03 00:52 KTRM 030052Z AUTO 00000KT 10SM CLR 14/08 A3008 RMK AO2 SLP185 T01390078
 
KNXP - Twentynine Palms, California, USA
Distance from station: NNE 37mi, 60km
Updated: Fri, 02-Dec-2022 4:56pm PST
Few Clouds
Few Clouds
 Wind from S
Wind: S 6 mph , 9 km/h
Temperature: 57°F , 14°C
Dew Point: 39°F , 4°C
Humidity: 51%
Barometer: 30.17 inHg , 1021.7 hPa
Clouds: Few Clouds
Cloud details: Few Clouds 12000 ft
2022/12/03 00:56 KNXP 030056Z AUTO 17005KT FEW120 14/04 A3017 RMK AO2 SLP201 T01390039 $
KL35 - Big Bear City, California, USA
Distance from station: NW 43mi, 69km
Updated: Fri, 02-Dec-2022 5:35pm PST
Overcast
Overcast
 Wind from WSW
Wind: WSW 6 mph , 9 km/h
Temperature: 41°F , 5°C
Wind Chill: 37°F , 3°C
Dew Point: 32°F , 0°C
Humidity: 70%
Barometer: 30.16 inHg , 1021.3 hPa
Clouds: Overcast
Visibility: 10 miles , 16 km
Cloud details: Partly Cloudy 7000 ft
Overcast 8500 ft
2022/12/03 01:35 KL35 030135Z AUTO 25005KT 10SM SCT070 OVC085 05/00 A3016 RMK AO2
 
KF70 - Murrieta/Temecula, California, USA
Distance from station: WSW 45mi, 73km
Updated: Fri, 02-Dec-2022 5:35pm PST
Clear
Clear
 Wind from N
Wind: N 5 mph , 7 km/h
Temperature: 57°F , 14°C
Dew Point: 46°F , 8°C
Humidity: 67%
Barometer: 30.08 inHg , 1018.6 hPa
Clouds: Clear
Visibility: 10 miles , 16 km
2022/12/03 01:35 KF70 030135Z AUTO 35004KT 10SM CLR 14/08 A3008 RMK AO2
KRIV - Riverside/March, California, USA
Distance from station: W 51mi, 82km
Updated: Fri, 02-Dec-2022 4:55pm PST
Clear
Clear
 Wind from NW
Wind: NW 3 mph , 6 km/h
Temperature: 55°F , 13°C
Dew Point: 48°F , 9°C
Humidity: 77%
Barometer: 30.08 inHg , 1018.6 hPa
Clouds: Clear
Visibility: 10 miles , 16 km
2022/12/03 00:55 KRIV 030055Z AUTO 31003KT 10SM CLR 13/09 A3008 RMK AO2 SLP185 T01340085
 
KSBD - San Bernardino, California, USA
Distance from station: WNW 54mi, 86km
Updated: Fri, 02-Dec-2022 4:59pm PST
Partly Cloudy
Partly Cloudy
 Wind from WSW
Wind: WSW 5 mph , 7 km/h
Temperature: 59°F , 15°C
Dew Point: 43°F , 6°C
Humidity: 55%
Barometer: 30.09 inHg , 1019 hPa
Clouds: Partly Cloudy
Visibility: 10 miles , 16 km
Cloud details: Partly Cloudy 12000 ft
2022/12/03 00:59 KSBD 030059Z 25004KT 10SM SCT120 15/06 A3009
KRNM - Ramona, California, USA
Distance from station: SSW 60mi, 96km
Updated: Fri, 02-Dec-2022 4:53pm PST
Clear
Clear
 Wind from WNW
Wind: WNW 6 mph , 9 km/h
Temperature: 57°F , 14°C
Dew Point: 46°F , 8°C
Humidity: 67%
Barometer: 30.06 inHg , 1017.9 hPa
Clouds: Clear
Visibility: 10 miles , 16 km
2022/12/03 00:53 KRNM 030053Z AUTO 30005KT 10SM CLR 14/08 A3006 RMK AO2 SLP173 T01440078
 
KRAL - Riverside, California, USA
Distance from station: W 62mi, 100km
Updated: Fri, 02-Dec-2022 4:53pm PST
Partly Cloudy
Partly Cloudy
 Wind from calm
Wind: Calm
Temperature: 59°F , 15°C
Dew Point: 46°F , 8°C
Humidity: 63%
Barometer: 30.09 inHg , 1019 hPa
Clouds: Partly Cloudy
Visibility: 10 miles , 16 km
Cloud details: Partly Cloudy 12000 ft
2022/12/03 00:53 KRAL 030053Z 00000KT 10SM SCT120 15/08 A3009 RMK AO2 SLP178 T01500083
KOKB - Oceanside, California, USA
Distance from station: SW 68mi, 109km
Updated: Fri, 02-Dec-2022 4:52pm PST
Clear
Clear
 Wind from varies
Wind: varies 6 mph , 9 km/h
Temperature: 59°F , 15°C
Dew Point: 52°F , 11°C
Humidity: 77%
Barometer: 30.05 inHg , 1017.6 hPa
Clouds: Clear
Visibility: 10 miles , 16 km
2022/12/03 00:52 KOKB 030052Z AUTO VRB05KT 10SM CLR 15/11 A3005 RMK AO2 SLP176 T01500106
 
KONT - Ontario, California, USA
Distance from station: WNW 71mi, 114km
Updated: Fri, 02-Dec-2022 4:53pm PST
Overcast
Overcast
 Wind from calm
Wind: Calm
Temperature: 59°F , 15°C
Dew Point: 46°F , 8°C
Humidity: 63%
Barometer: 30.09 inHg , 1019 hPa
Clouds: Overcast
Visibility: 10 miles , 16 km
Cloud details: Few Clouds 5000 ft
Partly Cloudy 9000 ft
Mostly Cloudy 13000 ft
Overcast 18000 ft
2022/12/03 00:53 KONT 030053Z 00000KT 10SM FEW050 SCT090 BKN130 OVC180 15/08 A3009 RMK AO2 SLP187 T01500083
KNJK - El Centro Naf, California, USA
Distance from station: SSE 78mi, 126km
Updated: Fri, 02-Dec-2022 4:56pm PST
Mostly Cloudy
Mostly Cloudy
 Wind from N
Wind: N 5 mph , 7 km/h
Temperature: 66°F , 19°C
Dew Point: 41°F , 5°C
Humidity: 40%
Barometer: 30.09 inHg , 1019 hPa
Clouds: Mostly Cloudy
Visibility: 10 miles , 16 km
Cloud details: Few Clouds 18000 ft
Mostly Cloudy 25000 ft
2022/12/03 00:56 KNJK 030056Z 35004KT 10SM FEW180 BKN250 19/05 A3009 RMK AO2 SLP203 T01890050 $
 
KSEE - San Diego/Santee, California, USA
Distance from station: SSW 74mi, 120km
Updated: Fri, 02-Dec-2022 3:47pm PST
NOT Current
Clear
Clear
 Wind from W
Wind: W 12 mph , 19 km/h
Temperature: 64°F , 18°C
Dew Point: 48°F , 9°C
Humidity: 56%
Barometer: 30.06 inHg , 1017.9 hPa
Clouds: Clear
Visibility: 10 miles , 16 km
2022/12/02 23:47 KSEE 022347Z 27010KT 10SM SKC 18/09 A3006
KCNO - Chino, California, USA
Distance from station: W 72mi, 116km
Updated: Fri, 02-Dec-2022 4:53pm PST
Overcast
Overcast
 Wind from calm
Wind: Calm
Temperature: 59°F , 15°C
Dew Point: 48°F , 9°C
Humidity: 68%
Barometer: 30.10 inHg , 1019.3 hPa
Clouds: Overcast
Visibility: 10 miles , 16 km
Cloud details: Few Clouds 6000 ft
Mostly Cloudy 12000 ft
Overcast 20000 ft
2022/12/03 00:53 KCNO 030053Z 00000KT 10SM FEW060 BKN120 OVC200 15/09 A3010 RMK AO2 SLP190 T01500089

Metar display script from Saratoga-Weather.org